sensor_id;sensor_type;location;lat;lon;timestamp;P1;durP1;ratioP1;P2;durP2;ratioP2
53052;SDS011;38934;52.690;6.184;2023-04-10T00:01:15;69.07;;;45.50;;
53052;SDS011;38934;52.690;6.184;2023-04-10T00:03:41;64.85;;;44.30;;
53052;SDS011;38934;52.690;6.184;2023-04-10T00:06:07;72.40;;;46.47;;
53052;SDS011;38934;52.690;6.184;2023-04-10T00:08:33;70.32;;;47.85;;
53052;SDS011;38934;52.690;6.184;2023-04-10T00:10:59;66.50;;;45.20;;
53052;SDS011;38934;52.690;6.184;2023-04-10T00:13:25;66.20;;;45.95;;
53052;SDS011;38934;52.690;6.184;2023-04-10T00:15:52;65.88;;;45.70;;
53052;SDS011;38934;52.690;6.184;2023-04-10T00:18:18;62.75;;;44.63;;
53052;SDS011;38934;52.690;6.184;2023-04-10T00:20:44;66.70;;;45.95;;
53052;SDS011;38934;52.690;6.184;2023-04-10T00:23:10;63.28;;;44.80;;
53052;SDS011;38934;52.690;6.184;2023-04-10T00:25:36;62.88;;;42.42;;
53052;SDS011;38934;52.690;6.184;2023-04-10T00:28:02;66.18;;;41.78;;
53052;SDS011;38934;52.690;6.184;2023-04-10T00:30:28;62.85;;;41.47;;
53052;SDS011;38934;52.690;6.184;2023-04-10T00:32:54;63.60;;;44.88;;
53052;SDS011;38934;52.690;6.184;2023-04-10T00:35:20;65.47;;;43.33;;
53052;SDS011;38934;52.690;6.184;2023-04-10T00:37:46;65.25;;;44.72;;
53052;SDS011;38934;52.690;6.184;2023-04-10T00:40:14;64.88;;;42.50;;
53052;SDS011;38934;52.690;6.184;2023-04-10T00:42:40;62.15;;;43.03;;
53052;SDS011;38934;52.690;6.184;2023-04-10T00:45:06;61.95;;;42.00;;
53052;SDS011;38934;52.690;6.184;2023-04-10T00:47:32;67.43;;;44.05;;
53052;SDS011;38934;52.690;6.184;2023-04-10T00:49:58;64.70;;;44.72;;
53052;SDS011;38934;52.690;6.184;2023-04-10T00:52:25;66.53;;;45.25;;
53052;SDS011;38934;52.690;6.184;2023-04-10T00:54:51;61.28;;;43.22;;
53052;SDS011;38934;52.690;6.184;2023-04-10T00:57:17;59.70;;;42.00;;
53052;SDS011;38934;52.690;6.184;2023-04-10T00:59:43;66.32;;;43.80;;
53052;SDS011;38934;52.690;6.184;2023-04-10T01:02:09;65.20;;;43.40;;
53052;SDS011;38934;52.690;6.184;2023-04-10T01:04:37;62.58;;;40.90;;
53052;SDS011;38934;52.690;6.184;2023-04-10T01:07:14;68.80;;;43.75;;
53052;SDS011;38934;52.690;6.184;2023-04-10T01:09:46;68.57;;;44.97;;
53052;SDS011;38934;52.690;6.184;2023-04-10T01:12:19;62.67;;;43.42;;
53052;SDS011;38934;52.690;6.184;2023-04-10T01:15:02;64.20;;;44.47;;
53052;SDS011;38934;52.690;6.184;2023-04-10T01:17:47;64.97;;;43.05;;
53052;SDS011;38934;52.690;6.184;2023-04-10T01:20:18;65.53;;;42.85;;
53052;SDS011;38934;52.690;6.184;2023-04-10T01:25:40;64.60;;;43.75;;
53052;SDS011;38934;52.690;6.184;2023-04-10T01:30:44;68.57;;;45.05;;
53052;SDS011;38934;52.690;6.184;2023-04-10T01:33:11;66.55;;;44.92;;
53052;SDS011;38934;52.690;6.184;2023-04-10T01:35:38;69.03;;;45.15;;
53052;SDS011;38934;52.690;6.184;2023-04-10T01:38:06;66.10;;;43.40;;
53052;SDS011;38934;52.690;6.184;2023-04-10T01:40:32;65.95;;;43.65;;
53052;SDS011;38934;52.690;6.184;2023-04-10T01:42:59;68.68;;;44.38;;
53052;SDS011;38934;52.690;6.184;2023-04-10T01:45:27;61.60;;;41.60;;
53052;SDS011;38934;52.690;6.184;2023-04-10T01:47:53;61.90;;;41.20;;
53052;SDS011;38934;52.690;6.184;2023-04-10T01:50:20;63.22;;;41.35;;
53052;SDS011;38934;52.690;6.184;2023-04-10T01:52:52;63.75;;;43.28;;
53052;SDS011;38934;52.690;6.184;2023-04-10T01:55:21;67.38;;;44.35;;
53052;SDS011;38934;52.690;6.184;2023-04-10T01:57:47;66.68;;;43.33;;
53052;SDS011;38934;52.690;6.184;2023-04-10T02:00:14;62.63;;;42.70;;
53052;SDS011;38934;52.690;6.184;2023-04-10T02:02:41;61.08;;;41.17;;
53052;SDS011;38934;52.690;6.184;2023-04-10T02:05:07;64.65;;;42.85;;
53052;SDS011;38934;52.690;6.184;2023-04-10T02:07:38;65.78;;;41.60;;
53052;SDS011;38934;52.690;6.184;2023-04-10T02:10:34;57.95;;;40.10;;
53052;SDS011;38934;52.690;6.184;2023-04-10T02:12:59;60.58;;;41.00;;
53052;SDS011;38934;52.690;6.184;2023-04-10T02:15:26;59.72;;;39.65;;
53052;SDS011;38934;52.690;6.184;2023-04-10T02:17:52;59.03;;;39.70;;
53052;SDS011;38934;52.690;6.184;2023-04-10T02:20:19;56.95;;;39.83;;
53052;SDS011;38934;52.690;6.184;2023-04-10T02:22:46;56.13;;;37.92;;
53052;SDS011;38934;52.690;6.184;2023-04-10T02:25:13;53.60;;;37.08;;
53052;SDS011;38934;52.690;6.184;2023-04-10T02:27:39;55.03;;;37.75;;
53052;SDS011;38934;52.690;6.184;2023-04-10T02:30:05;56.38;;;37.20;;
53052;SDS011;38934;52.690;6.184;2023-04-10T02:32:32;50.83;;;34.78;;
53052;SDS011;38934;52.690;6.184;2023-04-10T02:34:58;55.30;;;36.05;;
53052;SDS011;38934;52.690;6.184;2023-04-10T02:37:24;51.30;;;35.30;;
53052;SDS011;38934;52.690;6.184;2023-04-10T02:39:51;49.97;;;34.33;;
53052;SDS011;38934;52.690;6.184;2023-04-10T02:42:18;52.88;;;34.85;;
53052;SDS011;38934;52.690;6.184;2023-04-10T02:44:44;48.22;;;32.38;;
53052;SDS011;38934;52.690;6.184;2023-04-10T02:47:11;54.63;;;33.65;;
53052;SDS011;38934;52.690;6.184;2023-04-10T02:49:37;52.50;;;33.03;;
53052;SDS011;38934;52.690;6.184;2023-04-10T02:52:03;45.75;;;31.20;;
53052;SDS011;38934;52.690;6.184;2023-04-10T02:54:29;47.58;;;31.92;;
53052;SDS011;38934;52.690;6.184;2023-04-10T02:56:55;45.10;;;30.42;;
53052;SDS011;38934;52.690;6.184;2023-04-10T02:59:21;44.65;;;30.10;;
53052;SDS011;38934;52.690;6.184;2023-04-10T03:01:49;46.15;;;30.48;;
53052;SDS011;38934;52.690;6.184;2023-04-10T03:04:16;40.72;;;29.70;;
53052;SDS011;38934;52.690;6.184;2023-04-10T03:06:43;41.42;;;28.48;;
53052;SDS011;38934;52.690;6.184;2023-04-10T03:09:09;39.05;;;28.88;;
53052;SDS011;38934;52.690;6.184;2023-04-10T03:11:35;42.70;;;29.63;;
53052;SDS011;38934;52.690;6.184;2023-04-10T03:14:02;39.40;;;27.23;;
53052;SDS011;38934;52.690;6.184;2023-04-10T03:16:29;43.42;;;28.77;;
53052;SDS011;38934;52.690;6.184;2023-04-10T03:18:55;40.55;;;27.85;;
53052;SDS011;38934;52.690;6.184;2023-04-10T03:21:21;39.35;;;27.20;;
53052;SDS011;38934;52.690;6.184;2023-04-10T03:23:47;39.13;;;26.38;;
53052;SDS011;38934;52.690;6.184;2023-04-10T03:26:13;39.55;;;26.73;;
53052;SDS011;38934;52.690;6.184;2023-04-10T03:28:39;40.58;;;26.75;;
53052;SDS011;38934;52.690;6.184;2023-04-10T03:31:05;38.22;;;26.35;;
53052;SDS011;38934;52.690;6.184;2023-04-10T03:33:32;36.83;;;25.60;;
53052;SDS011;38934;52.690;6.184;2023-04-10T03:35:58;38.17;;;26.20;;
53052;SDS011;38934;52.690;6.184;2023-04-10T03:38:24;38.38;;;25.85;;
53052;SDS011;38934;52.690;6.184;2023-04-10T03:40:49;36.58;;;24.10;;
53052;SDS011;38934;52.690;6.184;2023-04-10T03:43:16;36.30;;;24.23;;
53052;SDS011;38934;52.690;6.184;2023-04-10T03:45:42;35.67;;;24.60;;
53052;SDS011;38934;52.690;6.184;2023-04-10T03:48:07;34.90;;;23.75;;
53052;SDS011;38934;52.690;6.184;2023-04-10T03:50:33;35.40;;;23.58;;
53052;SDS011;38934;52.690;6.184;2023-04-10T03:53:00;31.38;;;22.20;;
53052;SDS011;38934;52.690;6.184;2023-04-10T03:55:26;35.10;;;22.95;;
53052;SDS011;38934;52.690;6.184;2023-04-10T03:57:52;34.45;;;23.38;;
53052;SDS011;38934;52.690;6.184;2023-04-10T04:00:18;34.92;;;23.08;;
53052;SDS011;38934;52.690;6.184;2023-04-10T04:02:44;33.88;;;22.98;;
53052;SDS011;38934;52.690;6.184;2023-04-10T04:05:10;32.83;;;22.42;;
53052;SDS011;38934;52.690;6.184;2023-04-10T04:07:36;33.35;;;21.73;;
53052;SDS011;38934;52.690;6.184;2023-04-10T04:10:02;34.55;;;22.63;;
53052;SDS011;38934;52.690;6.184;2023-04-10T04:12:29;32.88;;;21.17;;
53052;SDS011;38934;52.690;6.184;2023-04-10T04:14:55;29.45;;;19.88;;
53052;SDS011;38934;52.690;6.184;2023-04-10T04:17:21;29.63;;;20.73;;
53052;SDS011;38934;52.690;6.184;2023-04-10T04:19:47;30.48;;;21.05;;
53052;SDS011;38934;52.690;6.184;2023-04-10T04:22:13;31.15;;;20.30;;
53052;SDS011;38934;52.690;6.184;2023-04-10T04:24:39;29.45;;;20.00;;
53052;SDS011;38934;52.690;6.184;2023-04-10T04:27:06;29.63;;;20.17;;
53052;SDS011;38934;52.690;6.184;2023-04-10T04:29:32;28.92;;;19.55;;
53052;SDS011;38934;52.690;6.184;2023-04-10T04:31:58;28.90;;;19.42;;
53052;SDS011;38934;52.690;6.184;2023-04-10T04:34:24;28.52;;;18.38;;
53052;SDS011;38934;52.690;6.184;2023-04-10T04:36:50;29.25;;;18.83;;
53052;SDS011;38934;52.690;6.184;2023-04-10T04:39:16;27.10;;;18.70;;
53052;SDS011;38934;52.690;6.184;2023-04-10T04:41:42;31.77;;;19.98;;
53052;SDS011;38934;52.690;6.184;2023-04-10T04:44:08;28.55;;;19.08;;
53052;SDS011;38934;52.690;6.184;2023-04-10T04:46:34;33.10;;;19.10;;
53052;SDS011;38934;52.690;6.184;2023-04-10T04:49:00;27.02;;;18.73;;
53052;SDS011;38934;52.690;6.184;2023-04-10T04:51:26;30.25;;;19.35;;
53052;SDS011;38934;52.690;6.184;2023-04-10T04:53:52;29.75;;;19.05;;
53052;SDS011;38934;52.690;6.184;2023-04-10T04:56:18;26.77;;;17.80;;
53052;SDS011;38934;52.690;6.184;2023-04-10T04:58:44;28.23;;;19.05;;
53052;SDS011;38934;52.690;6.184;2023-04-10T05:01:10;28.30;;;18.42;;
53052;SDS011;38934;52.690;6.184;2023-04-10T05:03:36;26.83;;;18.17;;
53052;SDS011;38934;52.690;6.184;2023-04-10T05:06:03;26.50;;;17.45;;
53052;SDS011;38934;52.690;6.184;2023-04-10T05:08:29;26.35;;;17.48;;
53052;SDS011;38934;52.690;6.184;2023-04-10T05:10:55;28.20;;;17.38;;
53052;SDS011;38934;52.690;6.184;2023-04-10T05:13:21;28.13;;;18.23;;
53052;SDS011;38934;52.690;6.184;2023-04-10T05:15:47;28.42;;;17.85;;
53052;SDS011;38934;52.690;6.184;2023-04-10T05:18:14;26.63;;;18.35;;
53052;SDS011;38934;52.690;6.184;2023-04-10T05:20:43;26.00;;;17.52;;
53052;SDS011;38934;52.690;6.184;2023-04-10T05:23:11;25.15;;;16.50;;
53052;SDS011;38934;52.690;6.184;2023-04-10T05:25:37;24.23;;;16.73;;
53052;SDS011;38934;52.690;6.184;2023-04-10T05:28:03;23.83;;;16.30;;
53052;SDS011;38934;52.690;6.184;2023-04-10T05:30:29;25.95;;;17.50;;
53052;SDS011;38934;52.690;6.184;2023-04-10T05:32:55;23.63;;;15.90;;
53052;SDS011;38934;52.690;6.184;2023-04-10T05:35:21;26.48;;;17.08;;
53052;SDS011;38934;52.690;6.184;2023-04-10T05:37:47;24.30;;;16.63;;
53052;SDS011;38934;52.690;6.184;2023-04-10T05:40:13;24.13;;;16.67;;
53052;SDS011;38934;52.690;6.184;2023-04-10T05:42:39;25.00;;;16.17;;
53052;SDS011;38934;52.690;6.184;2023-04-10T05:45:05;25.45;;;16.85;;
53052;SDS011;38934;52.690;6.184;2023-04-10T05:47:31;24.67;;;16.48;;
53052;SDS011;38934;52.690;6.184;2023-04-10T05:49:57;26.95;;;17.08;;
53052;SDS011;38934;52.690;6.184;2023-04-10T05:52:23;23.48;;;15.50;;
53052;SDS011;38934;52.690;6.184;2023-04-10T05:54:49;23.98;;;15.80;;
53052;SDS011;38934;52.690;6.184;2023-04-10T05:57:18;24.50;;;15.63;;
53052;SDS011;38934;52.690;6.184;2023-04-10T05:59:44;23.77;;;16.00;;
53052;SDS011;38934;52.690;6.184;2023-04-10T06:02:10;23.77;;;16.38;;
53052;SDS011;38934;52.690;6.184;2023-04-10T06:04:36;23.50;;;16.25;;
53052;SDS011;38934;52.690;6.184;2023-04-10T06:07:02;24.02;;;16.05;;
53052;SDS011;38934;52.690;6.184;2023-04-10T06:09:28;22.67;;;16.00;;
53052;SDS011;38934;52.690;6.184;2023-04-10T06:11:54;23.00;;;15.38;;
53052;SDS011;38934;52.690;6.184;2023-04-10T06:14:20;22.55;;;15.60;;
53052;SDS011;38934;52.690;6.184;2023-04-10T06:16:46;23.20;;;15.43;;
53052;SDS011;38934;52.690;6.184;2023-04-10T06:19:12;22.67;;;15.20;;
53052;SDS011;38934;52.690;6.184;2023-04-10T06:21:38;22.27;;;15.35;;
53052;SDS011;38934;52.690;6.184;2023-04-10T06:24:04;23.65;;;15.38;;
53052;SDS011;38934;52.690;6.184;2023-04-10T06:26:30;22.40;;;15.23;;
53052;SDS011;38934;52.690;6.184;2023-04-10T06:28:56;23.27;;;15.75;;
53052;SDS011;38934;52.690;6.184;2023-04-10T06:31:22;21.33;;;14.50;;
53052;SDS011;38934;52.690;6.184;2023-04-10T06:33:49;22.35;;;15.40;;
53052;SDS011;38934;52.690;6.184;2023-04-10T06:36:15;24.42;;;15.35;;
53052;SDS011;38934;52.690;6.184;2023-04-10T06:38:41;22.33;;;16.13;;
53052;SDS011;38934;52.690;6.184;2023-04-10T06:41:07;23.58;;;15.38;;
53052;SDS011;38934;52.690;6.184;2023-04-10T06:43:34;23.10;;;14.82;;
53052;SDS011;38934;52.690;6.184;2023-04-10T06:46:02;21.02;;;14.45;;
53052;SDS011;38934;52.690;6.184;2023-04-10T06:48:29;20.50;;;14.40;;
53052;SDS011;38934;52.690;6.184;2023-04-10T06:50:55;22.55;;;14.75;;
53052;SDS011;38934;52.690;6.184;2023-04-10T06:53:21;21.17;;;14.88;;
53052;SDS011;38934;52.690;6.184;2023-04-10T06:55:47;21.02;;;14.10;;
53052;SDS011;38934;52.690;6.184;2023-04-10T06:58:13;20.95;;;14.38;;
53052;SDS011;38934;52.690;6.184;2023-04-10T07:00:39;22.13;;;15.30;;
53052;SDS011;38934;52.690;6.184;2023-04-10T07:03:06;22.63;;;15.43;;
53052;SDS011;38934;52.690;6.184;2023-04-10T07:05:32;19.25;;;14.40;;
53052;SDS011;38934;52.690;6.184;2023-04-10T07:07:58;21.33;;;15.27;;
53052;SDS011;38934;52.690;6.184;2023-04-10T07:10:24;22.60;;;15.32;;
53052;SDS011;38934;52.690;6.184;2023-04-10T07:12:50;22.15;;;14.98;;
53052;SDS011;38934;52.690;6.184;2023-04-10T07:15:16;20.75;;;14.73;;
53052;SDS011;38934;52.690;6.184;2023-04-10T07:17:42;19.55;;;14.45;;
53052;SDS011;38934;52.690;6.184;2023-04-10T07:20:08;20.67;;;14.57;;
53052;SDS011;38934;52.690;6.184;2023-04-10T07:22:34;20.23;;;15.57;;
53052;SDS011;38934;52.690;6.184;2023-04-10T07:25:00;20.75;;;14.63;;
53052;SDS011;38934;52.690;6.184;2023-04-10T07:27:26;21.92;;;15.65;;
53052;SDS011;38934;52.690;6.184;2023-04-10T07:29:53;19.15;;;13.98;;
53052;SDS011;38934;52.690;6.184;2023-04-10T07:32:19;22.15;;;15.20;;
53052;SDS011;38934;52.690;6.184;2023-04-10T07:34:46;21.27;;;15.30;;
53052;SDS011;38934;52.690;6.184;2023-04-10T07:37:12;20.17;;;14.30;;
53052;SDS011;38934;52.690;6.184;2023-04-10T07:39:38;21.60;;;14.00;;
53052;SDS011;38934;52.690;6.184;2023-04-10T07:42:04;19.50;;;14.05;;
53052;SDS011;38934;52.690;6.184;2023-04-10T07:44:30;17.38;;;12.90;;
53052;SDS011;38934;52.690;6.184;2023-04-10T07:46:56;18.25;;;13.18;;
53052;SDS011;38934;52.690;6.184;2023-04-10T07:49:23;18.30;;;13.27;;
53052;SDS011;38934;52.690;6.184;2023-04-10T07:51:49;18.48;;;13.50;;
53052;SDS011;38934;52.690;6.184;2023-04-10T07:54:15;16.92;;;12.55;;
53052;SDS011;38934;52.690;6.184;2023-04-10T07:56:41;18.95;;;13.30;;
53052;SDS011;38934;52.690;6.184;2023-04-10T07:59:06;16.40;;;12.27;;
53052;SDS011;38934;52.690;6.184;2023-04-10T08:01:32;18.52;;;12.77;;
53052;SDS011;38934;52.690;6.184;2023-04-10T08:03:58;18.23;;;12.63;;
53052;SDS011;38934;52.690;6.184;2023-04-10T08:06:25;17.83;;;13.07;;
53052;SDS011;38934;52.690;6.184;2023-04-10T08:08:51;15.30;;;11.85;;
53052;SDS011;38934;52.690;6.184;2023-04-10T08:11:27;15.45;;;12.27;;
53052;SDS011;38934;52.690;6.184;2023-04-10T08:13:54;15.52;;;12.02;;
53052;SDS011;38934;52.690;6.184;2023-04-10T08:16:22;17.17;;;12.25;;
53052;SDS011;38934;52.690;6.184;2023-04-10T08:18:48;15.88;;;11.75;;
53052;SDS011;38934;52.690;6.184;2023-04-10T08:21:15;16.05;;;11.98;;
53052;SDS011;38934;52.690;6.184;2023-04-10T08:23:41;14.40;;;11.30;;
53052;SDS011;38934;52.690;6.184;2023-04-10T08:26:07;18.75;;;12.27;;
53052;SDS011;38934;52.690;6.184;2023-04-10T08:28:33;15.13;;;11.45;;
53052;SDS011;38934;52.690;6.184;2023-04-10T08:31:00;15.43;;;11.18;;
53052;SDS011;38934;52.690;6.184;2023-04-10T08:33:26;15.88;;;12.05;;
53052;SDS011;38934;52.690;6.184;2023-04-10T08:35:52;17.80;;;11.65;;
53052;SDS011;38934;52.690;6.184;2023-04-10T08:38:18;15.48;;;11.07;;
53052;SDS011;38934;52.690;6.184;2023-04-10T08:40:45;13.73;;;10.75;;
53052;SDS011;38934;52.690;6.184;2023-04-10T08:43:11;13.82;;;10.93;;
53052;SDS011;38934;52.690;6.184;2023-04-10T08:45:39;13.93;;;10.43;;
53052;SDS011;38934;52.690;6.184;2023-04-10T08:48:05;15.80;;;11.27;;
53052;SDS011;38934;52.690;6.184;2023-04-10T08:50:32;16.33;;;11.25;;
53052;SDS011;38934;52.690;6.184;2023-04-10T08:53:02;13.25;;;10.38;;
53052;SDS011;38934;52.690;6.184;2023-04-10T08:55:30;15.15;;;11.05;;
53052;SDS011;38934;52.690;6.184;2023-04-10T08:57:56;13.98;;;10.68;;
53052;SDS011;38934;52.690;6.184;2023-04-10T09:00:22;15.27;;;11.27;;
53052;SDS011;38934;52.690;6.184;2023-04-10T09:02:48;15.40;;;11.38;;
53052;SDS011;38934;52.690;6.184;2023-04-10T09:05:19;15.65;;;10.88;;
53052;SDS011;38934;52.690;6.184;2023-04-10T09:07:45;16.05;;;11.77;;
53052;SDS011;38934;52.690;6.184;2023-04-10T09:10:11;14.52;;;10.98;;
53052;SDS011;38934;52.690;6.184;2023-04-10T09:12:44;13.73;;;10.90;;
53052;SDS011;38934;52.690;6.184;2023-04-10T09:15:10;14.43;;;11.02;;
53052;SDS011;38934;52.690;6.184;2023-04-10T09:17:37;13.93;;;10.60;;
53052;SDS011;38934;52.690;6.184;2023-04-10T09:20:19;13.07;;;10.35;;
53052;SDS011;38934;52.690;6.184;2023-04-10T09:22:46;13.90;;;10.55;;
53052;SDS011;38934;52.690;6.184;2023-04-10T09:25:27;15.40;;;10.43;;
53052;SDS011;38934;52.690;6.184;2023-04-10T09:27:58;13.00;;;10.05;;
53052;SDS011;38934;52.690;6.184;2023-04-10T09:30:31;12.50;;;10.30;;
53052;SDS011;38934;52.690;6.184;2023-04-10T09:32:58;13.60;;;9.88;;
53052;SDS011;38934;52.690;6.184;2023-04-10T09:35:33;11.07;;;8.70;;
53052;SDS011;38934;52.690;6.184;2023-04-10T09:37:59;11.70;;;8.75;;
53052;SDS011;38934;52.690;6.184;2023-04-10T09:40:25;10.77;;;8.85;;
53052;SDS011;38934;52.690;6.184;2023-04-10T09:42:52;11.98;;;8.43;;
53052;SDS011;38934;52.690;6.184;2023-04-10T09:45:20;13.68;;;8.35;;
53052;SDS011;38934;52.690;6.184;2023-04-10T09:48:06;12.65;;;8.85;;
53052;SDS011;38934;52.690;6.184;2023-04-10T09:50:35;11.13;;;8.52;;
53052;SDS011;38934;52.690;6.184;2023-04-10T09:53:03;11.75;;;9.40;;
53052;SDS011;38934;52.690;6.184;2023-04-10T09:55:29;11.57;;;8.80;;
53052;SDS011;38934;52.690;6.184;2023-04-10T09:57:56;9.57;;;8.02;;
53052;SDS011;38934;52.690;6.184;2023-04-10T10:00:22;10.50;;;8.57;;
53052;SDS011;38934;52.690;6.184;2023-04-10T10:02:49;10.93;;;8.50;;
53052;SDS011;38934;52.690;6.184;2023-04-10T10:05:16;10.43;;;8.15;;
53052;SDS011;38934;52.690;6.184;2023-04-10T10:07:42;11.63;;;8.10;;
53052;SDS011;38934;52.690;6.184;2023-04-10T10:10:09;10.20;;;7.93;;
53052;SDS011;38934;52.690;6.184;2023-04-10T10:12:42;10.90;;;8.27;;
53052;SDS011;38934;52.690;6.184;2023-04-10T10:15:11;10.68;;;8.52;;
53052;SDS011;38934;52.690;6.184;2023-04-10T10:17:42;10.80;;;8.20;;
53052;SDS011;38934;52.690;6.184;2023-04-10T10:20:10;9.98;;;7.90;;
53052;SDS011;38934;52.690;6.184;2023-04-10T10:22:38;10.48;;;8.20;;
53052;SDS011;38934;52.690;6.184;2023-04-10T10:25:04;9.55;;;7.72;;
53052;SDS011;38934;52.690;6.184;2023-04-10T10:27:33;9.73;;;7.85;;
53052;SDS011;38934;52.690;6.184;2023-04-10T10:30:01;10.73;;;8.55;;
53052;SDS011;38934;52.690;6.184;2023-04-10T10:32:28;10.25;;;8.00;;
53052;SDS011;38934;52.690;6.184;2023-04-10T10:34:55;9.75;;;7.75;;
53052;SDS011;38934;52.690;6.184;2023-04-10T10:37:22;9.95;;;8.05;;
53052;SDS011;38934;52.690;6.184;2023-04-10T10:42:22;10.32;;;7.60;;
53052;SDS011;38934;52.690;6.184;2023-04-10T10:44:55;8.73;;;7.40;;
53052;SDS011;38934;52.690;6.184;2023-04-10T10:47:23;9.90;;;7.63;;
53052;SDS011;38934;52.690;6.184;2023-04-10T10:49:55;8.85;;;7.07;;
53052;SDS011;38934;52.690;6.184;2023-04-10T10:58:04;9.07;;;7.50;;
53052;SDS011;38934;52.690;6.184;2023-04-10T11:05:47;11.35;;;7.80;;
53052;SDS011;38934;52.690;6.184;2023-04-10T11:08:15;9.35;;;7.60;;
53052;SDS011;38934;52.690;6.184;2023-04-10T11:13:26;9.60;;;7.93;;
53052;SDS011;38934;52.690;6.184;2023-04-10T11:15:53;9.30;;;7.78;;
53052;SDS011;38934;52.690;6.184;2023-04-10T11:18:27;10.02;;;7.35;;
53052;SDS011;38934;52.690;6.184;2023-04-10T11:21:13;9.43;;;7.78;;
53052;SDS011;38934;52.690;6.184;2023-04-10T11:29:03;9.27;;;7.53;;
53052;SDS011;38934;52.690;6.184;2023-04-10T11:31:30;9.30;;;7.25;;
53052;SDS011;38934;52.690;6.184;2023-04-10T11:36:22;9.65;;;7.35;;
53052;SDS011;38934;52.690;6.184;2023-04-10T11:38:55;9.55;;;7.45;;
53052;SDS011;38934;52.690;6.184;2023-04-10T11:43:50;10.02;;;7.47;;
53052;SDS011;38934;52.690;6.184;2023-04-10T11:46:16;9.23;;;7.10;;
53052;SDS011;38934;52.690;6.184;2023-04-10T11:48:43;8.77;;;7.50;;
53052;SDS011;38934;52.690;6.184;2023-04-10T11:51:10;8.98;;;7.20;;
53052;SDS011;38934;52.690;6.184;2023-04-10T11:53:37;9.45;;;7.40;;
53052;SDS011;38934;52.690;6.184;2023-04-10T11:56:03;8.45;;;6.65;;
53052;SDS011;38934;52.690;6.184;2023-04-10T11:58:31;7.95;;;6.50;;
53052;SDS011;38934;52.690;6.184;2023-04-10T12:03:36;8.82;;;6.60;;
53052;SDS011;38934;52.690;6.184;2023-04-10T12:06:10;8.88;;;6.60;;
53052;SDS011;38934;52.690;6.184;2023-04-10T12:08:37;9.65;;;6.30;;
53052;SDS011;38934;52.690;6.184;2023-04-10T12:11:03;8.85;;;6.85;;
53052;SDS011;38934;52.690;6.184;2023-04-10T12:13:30;8.35;;;6.32;;
53052;SDS011;38934;52.690;6.184;2023-04-10T12:15:57;7.63;;;6.18;;
53052;SDS011;38934;52.690;6.184;2023-04-10T12:18:25;8.63;;;6.28;;
53052;SDS011;38934;52.690;6.184;2023-04-10T12:20:51;7.93;;;5.97;;
53052;SDS011;38934;52.690;6.184;2023-04-10T12:23:20;7.70;;;6.45;;
53052;SDS011;38934;52.690;6.184;2023-04-10T12:25:47;8.35;;;7.07;;
53052;SDS011;38934;52.690;6.184;2023-04-10T12:28:17;8.50;;;6.60;;
53052;SDS011;38934;52.690;6.184;2023-04-10T12:30:51;7.43;;;6.15;;
53052;SDS011;38934;52.690;6.184;2023-04-10T12:33:23;7.45;;;6.10;;
53052;SDS011;38934;52.690;6.184;2023-04-10T12:35:50;9.30;;;5.97;;
53052;SDS011;38934;52.690;6.184;2023-04-10T12:38:33;8.23;;;6.05;;
53052;SDS011;38934;52.690;6.184;2023-04-10T12:41:00;6.93;;;6.18;;
53052;SDS011;38934;52.690;6.184;2023-04-10T12:43:30;7.95;;;6.22;;
53052;SDS011;38934;52.690;6.184;2023-04-10T12:45:57;8.80;;;6.57;;
53052;SDS011;38934;52.690;6.184;2023-04-10T12:48:23;6.95;;;5.82;;
53052;SDS011;38934;52.690;6.184;2023-04-10T12:50:49;7.95;;;6.32;;
53052;SDS011;38934;52.690;6.184;2023-04-10T12:53:15;8.07;;;6.65;;
53052;SDS011;38934;52.690;6.184;2023-04-10T12:55:41;7.95;;;5.88;;
53052;SDS011;38934;52.690;6.184;2023-04-10T12:58:22;8.52;;;6.18;;
53052;SDS011;38934;52.690;6.184;2023-04-10T13:00:52;8.05;;;5.97;;
53052;SDS011;38934;52.690;6.184;2023-04-10T13:03:18;8.30;;;6.85;;
53052;SDS011;38934;52.690;6.184;2023-04-10T13:05:44;7.75;;;6.20;;
53052;SDS011;38934;52.690;6.184;2023-04-10T13:08:11;7.25;;;6.13;;
53052;SDS011;38934;52.690;6.184;2023-04-10T13:10:37;7.63;;;6.00;;
53052;SDS011;38934;52.690;6.184;2023-04-10T13:13:04;8.48;;;6.68;;
53052;SDS011;38934;52.690;6.184;2023-04-10T13:15:35;7.20;;;6.00;;
53052;SDS011;38934;52.690;6.184;2023-04-10T13:18:02;8.48;;;6.53;;
53052;SDS011;38934;52.690;6.184;2023-04-10T13:20:31;8.63;;;6.13;;
53052;SDS011;38934;52.690;6.184;2023-04-10T13:22:57;7.93;;;6.28;;
53052;SDS011;38934;52.690;6.184;2023-04-10T13:25:23;8.38;;;5.82;;
53052;SDS011;38934;52.690;6.184;2023-04-10T13:27:49;6.85;;;5.80;;
53052;SDS011;38934;52.690;6.184;2023-04-10T13:30:15;7.72;;;6.03;;
53052;SDS011;38934;52.690;6.184;2023-04-10T13:32:41;8.85;;;6.13;;
53052;SDS011;38934;52.690;6.184;2023-04-10T13:35:07;7.40;;;6.13;;
53052;SDS011;38934;52.690;6.184;2023-04-10T13:37:33;8.07;;;6.30;;
53052;SDS011;38934;52.690;6.184;2023-04-10T13:39:59;8.88;;;6.50;;
53052;SDS011;38934;52.690;6.184;2023-04-10T13:42:25;8.73;;;6.25;;
53052;SDS011;38934;52.690;6.184;2023-04-10T13:44:51;7.95;;;5.63;;
53052;SDS011;38934;52.690;6.184;2023-04-10T13:47:17;6.85;;;5.95;;
53052;SDS011;38934;52.690;6.184;2023-04-10T13:49:43;8.07;;;6.40;;
53052;SDS011;38934;52.690;6.184;2023-04-10T13:52:09;7.68;;;5.70;;
53052;SDS011;38934;52.690;6.184;2023-04-10T13:54:35;6.75;;;5.65;;
53052;SDS011;38934;52.690;6.184;2023-04-10T13:57:01;8.35;;;5.60;;
53052;SDS011;38934;52.690;6.184;2023-04-10T13:59:27;8.80;;;5.72;;
53052;SDS011;38934;52.690;6.184;2023-04-10T14:01:53;7.82;;;5.72;;
53052;SDS011;38934;52.690;6.184;2023-04-10T14:04:19;7.97;;;6.03;;
53052;SDS011;38934;52.690;6.184;2023-04-10T14:06:45;7.88;;;5.93;;
53052;SDS011;38934;52.690;6.184;2023-04-10T14:09:11;10.32;;;5.65;;
53052;SDS011;38934;52.690;6.184;2023-04-10T14:11:37;7.88;;;5.93;;
53052;SDS011;38934;52.690;6.184;2023-04-10T14:14:03;7.97;;;6.22;;
53052;SDS011;38934;52.690;6.184;2023-04-10T14:16:29;7.97;;;5.70;;
53052;SDS011;38934;52.690;6.184;2023-04-10T14:18:55;6.70;;;5.20;;
53052;SDS011;38934;52.690;6.184;2023-04-10T14:21:22;8.55;;;5.80;;
53052;SDS011;38934;52.690;6.184;2023-04-10T14:23:48;7.18;;;5.35;;
53052;SDS011;38934;52.690;6.184;2023-04-10T14:26:17;6.45;;;5.57;;
53052;SDS011;38934;52.690;6.184;2023-04-10T14:28:43;6.72;;;5.40;;
53052;SDS011;38934;52.690;6.184;2023-04-10T14:31:09;9.88;;;5.47;;
53052;SDS011;38934;52.690;6.184;2023-04-10T14:33:36;6.30;;;5.35;;
53052;SDS011;38934;52.690;6.184;2023-04-10T14:36:02;7.82;;;5.45;;
53052;SDS011;38934;52.690;6.184;2023-04-10T14:38:28;6.47;;;5.60;;
53052;SDS011;38934;52.690;6.184;2023-04-10T14:40:54;6.82;;;5.60;;
53052;SDS011;38934;52.690;6.184;2023-04-10T14:43:20;6.57;;;5.50;;
53052;SDS011;38934;52.690;6.184;2023-04-10T14:45:46;7.15;;;5.35;;
53052;SDS011;38934;52.690;6.184;2023-04-10T14:48:12;7.10;;;5.40;;
53052;SDS011;38934;52.690;6.184;2023-04-10T14:50:38;7.35;;;5.65;;
53052;SDS011;38934;52.690;6.184;2023-04-10T14:53:04;6.53;;;5.57;;
53052;SDS011;38934;52.690;6.184;2023-04-10T14:55:34;8.45;;;5.88;;
53052;SDS011;38934;52.690;6.184;2023-04-10T14:58:01;7.35;;;5.95;;
53052;SDS011;38934;52.690;6.184;2023-04-10T15:00:27;7.50;;;6.00;;
53052;SDS011;38934;52.690;6.184;2023-04-10T15:02:54;7.57;;;6.20;;